sensor_id;sensor_type;location;lat;lon;timestamp;temperature;humidity
44886;DHT22;36669;51.428;21.162;2022-09-09T00:00:47;12.40;99.90
44886;DHT22;36669;51.428;21.162;2022-09-09T00:03:22;12.50;99.90
44886;DHT22;36669;51.428;21.162;2022-09-09T00:11:24;12.50;99.90
44886;DHT22;36669;51.428;21.162;2022-09-09T00:13:57;12.60;99.90
44886;DHT22;36669;51.428;21.162;2022-09-09T00:16:27;12.60;99.90
44886;DHT22;36669;51.428;21.162;2022-09-09T00:19:07;12.60;99.90
44886;DHT22;36669;51.428;21.162;2022-09-09T00:21:38;12.60;99.90
44886;DHT22;36669;51.428;21.162;2022-09-09T00:24:11;12.60;99.90
44886;DHT22;36669;51.428;21.162;2022-09-09T00:26:47;12.60;99.90
44886;DHT22;36669;51.428;21.162;2022-09-09T00:29:45;12.70;99.90
44886;DHT22;36669;51.428;21.162;2022-09-09T00:32:14;12.70;99.90
44886;DHT22;36669;51.428;21.162;2022-09-09T00:34:49;12.70;99.90
44886;DHT22;36669;51.428;21.162;2022-09-09T00:37:16;12.70;99.90
44886;DHT22;36669;51.428;21.162;2022-09-09T00:39:46;12.70;99.90
44886;DHT22;36669;51.428;21.162;2022-09-09T00:42:25;12.80;99.90
44886;DHT22;36669;51.428;21.162;2022-09-09T00:47:54;12.80;99.90
44886;DHT22;36669;51.428;21.162;2022-09-09T00:50:49;12.90;99.90
44886;DHT22;36669;51.428;21.162;2022-09-09T00:53:51;12.90;99.90
44886;DHT22;36669;51.428;21.162;2022-09-09T00:56:25;12.90;99.90
44886;DHT22;36669;51.428;21.162;2022-09-09T00:59:07;12.90;99.90
44886;DHT22;36669;51.428;21.162;2022-09-09T01:01:37;12.90;99.90
44886;DHT22;36669;51.428;21.162;2022-09-09T01:04:07;12.80;99.90
44886;DHT22;36669;51.428;21.162;2022-09-09T01:06:37;12.80;99.90
44886;DHT22;36669;51.428;21.162;2022-09-09T01:09:18;12.80;99.90
44886;DHT22;36669;51.428;21.162;2022-09-09T01:12:11;12.80;99.90
44886;DHT22;36669;51.428;21.162;2022-09-09T01:14:40;12.80;99.90
44886;DHT22;36669;51.428;21.162;2022-09-09T01:22:33;12.80;99.90
44886;DHT22;36669;51.428;21.162;2022-09-09T01:28:06;12.70;99.90
44886;DHT22;36669;51.428;21.162;2022-09-09T01:30:37;12.80;99.90
44886;DHT22;36669;51.428;21.162;2022-09-09T01:33:04;12.70;99.90
44886;DHT22;36669;51.428;21.162;2022-09-09T01:35:50;12.70;99.90
44886;DHT22;36669;51.428;21.162;2022-09-09T01:38:18;12.70;99.90
44886;DHT22;36669;51.428;21.162;2022-09-09T01:40:44;12.70;99.90
44886;DHT22;36669;51.428;21.162;2022-09-09T01:43:10;12.70;99.90
44886;DHT22;36669;51.428;21.162;2022-09-09T01:45:37;12.70;99.90
44886;DHT22;36669;51.428;21.162;2022-09-09T01:48:03;12.70;99.90
44886;DHT22;36669;51.428;21.162;2022-09-09T01:50:29;12.70;99.90
44886;DHT22;36669;51.428;21.162;2022-09-09T01:52:58;12.70;99.90
44886;DHT22;36669;51.428;21.162;2022-09-09T01:55:40;12.70;99.90
44886;DHT22;36669;51.428;21.162;2022-09-09T02:03:52;12.70;99.90
44886;DHT22;36669;51.428;21.162;2022-09-09T02:06:39;12.60;99.90
44886;DHT22;36669;51.428;21.162;2022-09-09T02:09:07;12.60;99.90
44886;DHT22;36669;51.428;21.162;2022-09-09T02:11:33;12.60;99.90
44886;DHT22;36669;51.428;21.162;2022-09-09T02:14:10;12.50;99.90
44886;DHT22;36669;51.428;21.162;2022-09-09T02:16:44;12.50;99.90
44886;DHT22;36669;51.428;21.162;2022-09-09T02:19:27;12.50;99.90
44886;DHT22;36669;51.428;21.162;2022-09-09T02:21:56;12.50;99.90
44886;DHT22;36669;51.428;21.162;2022-09-09T02:24:23;12.50;99.90
44886;DHT22;36669;51.428;21.162;2022-09-09T02:26:52;12.50;99.90
44886;DHT22;36669;51.428;21.162;2022-09-09T02:29:28;12.50;99.90
44886;DHT22;36669;51.428;21.162;2022-09-09T02:31:57;12.50;99.90
44886;DHT22;36669;51.428;21.162;2022-09-09T02:34:23;12.50;99.90
44886;DHT22;36669;51.428;21.162;2022-09-09T02:36:51;12.60;99.90
44886;DHT22;36669;51.428;21.162;2022-09-09T02:39:19;12.50;99.90
44886;DHT22;36669;51.428;21.162;2022-09-09T02:41:44;12.60;99.90
44886;DHT22;36669;51.428;21.162;2022-09-09T02:44:12;12.60;99.90
44886;DHT22;36669;51.428;21.162;2022-09-09T02:52:02;12.60;99.90
44886;DHT22;36669;51.428;21.162;2022-09-09T02:54:32;12.60;99.90
44886;DHT22;36669;51.428;21.162;2022-09-09T02:57:25;12.70;99.90
44886;DHT22;36669;51.428;21.162;2022-09-09T02:59:52;12.70;99.90
44886;DHT22;36669;51.428;21.162;2022-09-09T03:02:17;12.70;99.90
44886;DHT22;36669;51.428;21.162;2022-09-09T03:04:43;12.70;99.90
44886;DHT22;36669;51.428;21.162;2022-09-09T03:07:08;12.70;99.90
44886;DHT22;36669;51.428;21.162;2022-09-09T03:09:34;12.70;99.90
44886;DHT22;36669;51.428;21.162;2022-09-09T03:11:59;12.80;99.90
44886;DHT22;36669;51.428;21.162;2022-09-09T03:14:25;12.80;99.90
44886;DHT22;36669;51.428;21.162;2022-09-09T03:16:52;12.80;99.90
44886;DHT22;36669;51.428;21.162;2022-09-09T03:19:17;12.80;99.90
44886;DHT22;36669;51.428;21.162;2022-09-09T03:21:43;12.80;99.90
44886;DHT22;36669;51.428;21.162;2022-09-09T03:24:09;12.80;99.90
44886;DHT22;36669;51.428;21.162;2022-09-09T03:26:34;12.80;99.90
44886;DHT22;36669;51.428;21.162;2022-09-09T03:29:00;12.80;99.90
44886;DHT22;36669;51.428;21.162;2022-09-09T03:31:25;12.80;99.90
44886;DHT22;36669;51.428;21.162;2022-09-09T03:33:51;12.80;99.90
44886;DHT22;36669;51.428;21.162;2022-09-09T03:36:17;12.90;99.90
44886;DHT22;36669;51.428;21.162;2022-09-09T03:38:42;12.90;99.90
44886;DHT22;36669;51.428;21.162;2022-09-09T03:41:08;12.90;99.90
44886;DHT22;36669;51.428;21.162;2022-09-09T03:43:34;12.90;99.90
44886;DHT22;36669;51.428;21.162;2022-09-09T03:45:59;12.90;99.90
44886;DHT22;36669;51.428;21.162;2022-09-09T03:48:26;13.00;99.90
44886;DHT22;36669;51.428;21.162;2022-09-09T03:50:53;13.00;99.90
44886;DHT22;36669;51.428;21.162;2022-09-09T03:53:21;13.00;99.90
44886;DHT22;36669;51.428;21.162;2022-09-09T03:55:52;13.00;99.90
44886;DHT22;36669;51.428;21.162;2022-09-09T03:58:17;13.00;99.90
44886;DHT22;36669;51.428;21.162;2022-09-09T04:00:43;13.00;99.90
44886;DHT22;36669;51.428;21.162;2022-09-09T04:03:09;13.00;99.90
44886;DHT22;36669;51.428;21.162;2022-09-09T04:05:35;13.10;99.90
44886;DHT22;36669;51.428;21.162;2022-09-09T04:08:01;13.10;99.90
44886;DHT22;36669;51.428;21.162;2022-09-09T04:10:26;13.10;99.90
44886;DHT22;36669;51.428;21.162;2022-09-09T04:12:52;13.10;99.90
44886;DHT22;36669;51.428;21.162;2022-09-09T04:15:17;13.10;99.90
44886;DHT22;36669;51.428;21.162;2022-09-09T04:17:43;13.10;99.90
44886;DHT22;36669;51.428;21.162;2022-09-09T04:20:09;13.10;99.90
44886;DHT22;36669;51.428;21.162;2022-09-09T04:22:34;13.10;99.90
44886;DHT22;36669;51.428;21.162;2022-09-09T04:25:00;13.20;99.90
44886;DHT22;36669;51.428;21.162;2022-09-09T04:27:25;13.20;99.90
44886;DHT22;36669;51.428;21.162;2022-09-09T04:29:51;13.20;99.90
44886;DHT22;36669;51.428;21.162;2022-09-09T04:32:16;13.20;99.90
44886;DHT22;36669;51.428;21.162;2022-09-09T04:34:42;13.20;99.90
44886;DHT22;36669;51.428;21.162;2022-09-09T04:37:07;13.30;99.90
44886;DHT22;36669;51.428;21.162;2022-09-09T04:39:33;13.20;99.90
44886;DHT22;36669;51.428;21.162;2022-09-09T04:41:58;13.30;99.90
44886;DHT22;36669;51.428;21.162;2022-09-09T04:44:24;13.30;99.90
44886;DHT22;36669;51.428;21.162;2022-09-09T04:46:49;13.40;99.90
44886;DHT22;36669;51.428;21.162;2022-09-09T04:49:15;13.40;99.90
44886;DHT22;36669;51.428;21.162;2022-09-09T04:51:40;13.40;99.90
44886;DHT22;36669;51.428;21.162;2022-09-09T04:54:06;13.40;99.90
44886;DHT22;36669;51.428;21.162;2022-09-09T04:56:31;13.50;99.90
44886;DHT22;36669;51.428;21.162;2022-09-09T04:58:57;13.50;99.90
44886;DHT22;36669;51.428;21.162;2022-09-09T05:01:23;13.50;99.90
44886;DHT22;36669;51.428;21.162;2022-09-09T05:03:49;13.50;99.90
44886;DHT22;36669;51.428;21.162;2022-09-09T05:06:16;13.50;99.90
44886;DHT22;36669;51.428;21.162;2022-09-09T05:08:43;13.60;99.90
44886;DHT22;36669;51.428;21.162;2022-09-09T05:11:19;13.60;99.90
44886;DHT22;36669;51.428;21.162;2022-09-09T05:13:46;13.60;99.90
44886;DHT22;36669;51.428;21.162;2022-09-09T05:16:12;13.60;99.90
44886;DHT22;36669;51.428;21.162;2022-09-09T05:18:39;13.70;99.90
44886;DHT22;36669;51.428;21.162;2022-09-09T05:21:06;13.70;99.90
44886;DHT22;36669;51.428;21.162;2022-09-09T05:23:35;13.70;99.90
44886;DHT22;36669;51.428;21.162;2022-09-09T05:26:01;13.80;99.90
44886;DHT22;36669;51.428;21.162;2022-09-09T05:28:27;13.90;99.90
44886;DHT22;36669;51.428;21.162;2022-09-09T05:31:07;13.90;99.90
44886;DHT22;36669;51.428;21.162;2022-09-09T05:33:34;13.90;99.90
44886;DHT22;36669;51.428;21.162;2022-09-09T05:36:05;13.90;99.90
44886;DHT22;36669;51.428;21.162;2022-09-09T05:38:31;13.90;99.90
44886;DHT22;36669;51.428;21.162;2022-09-09T05:40:57;13.90;99.90
44886;DHT22;36669;51.428;21.162;2022-09-09T05:43:23;14.00;99.90
44886;DHT22;36669;51.428;21.162;2022-09-09T05:45:59;14.00;99.90
44886;DHT22;36669;51.428;21.162;2022-09-09T05:48:28;14.10;99.90
44886;DHT22;36669;51.428;21.162;2022-09-09T05:50:53;14.20;99.90
44886;DHT22;36669;51.428;21.162;2022-09-09T05:53:19;14.20;99.90
44886;DHT22;36669;51.428;21.162;2022-09-09T05:55:44;14.30;99.90
44886;DHT22;36669;51.428;21.162;2022-09-09T05:58:10;14.40;99.90
44886;DHT22;36669;51.428;21.162;2022-09-09T06:00:35;14.40;99.90
44886;DHT22;36669;51.428;21.162;2022-09-09T06:03:01;14.50;99.90
44886;DHT22;36669;51.428;21.162;2022-09-09T06:05:26;14.60;99.90
44886;DHT22;36669;51.428;21.162;2022-09-09T06:07:52;14.70;99.90
44886;DHT22;36669;51.428;21.162;2022-09-09T06:10:18;14.80;99.90
44886;DHT22;36669;51.428;21.162;2022-09-09T06:12:44;14.90;99.90
44886;DHT22;36669;51.428;21.162;2022-09-09T06:15:09;14.80;99.90
44886;DHT22;36669;51.428;21.162;2022-09-09T06:17:35;14.90;99.90
44886;DHT22;36669;51.428;21.162;2022-09-09T06:20:00;14.90;99.90
44886;DHT22;36669;51.428;21.162;2022-09-09T06:22:26;14.80;99.90
44886;DHT22;36669;51.428;21.162;2022-09-09T06:24:51;14.80;99.90
44886;DHT22;36669;51.428;21.162;2022-09-09T06:27:17;14.70;99.90
44886;DHT22;36669;51.428;21.162;2022-09-09T06:29:42;14.80;99.90
44886;DHT22;36669;51.428;21.162;2022-09-09T06:32:08;14.80;99.90
44886;DHT22;36669;51.428;21.162;2022-09-09T06:34:33;14.80;99.90
44886;DHT22;36669;51.428;21.162;2022-09-09T06:36:59;14.90;99.90
44886;DHT22;36669;51.428;21.162;2022-09-09T06:39:25;15.10;99.90
44886;DHT22;36669;51.428;21.162;2022-09-09T06:41:51;15.10;99.90
44886;DHT22;36669;51.428;21.162;2022-09-09T06:44:16;15.10;99.90
44886;DHT22;36669;51.428;21.162;2022-09-09T06:46:42;15.20;99.90
44886;DHT22;36669;51.428;21.162;2022-09-09T06:49:10;15.10;99.90
44886;DHT22;36669;51.428;21.162;2022-09-09T06:51:37;15.10;99.90
44886;DHT22;36669;51.428;21.162;2022-09-09T06:54:03;15.10;99.90
44886;DHT22;36669;51.428;21.162;2022-09-09T06:56:32;15.10;99.90
44886;DHT22;36669;51.428;21.162;2022-09-09T06:59:00;15.00;99.90
44886;DHT22;36669;51.428;21.162;2022-09-09T07:01:28;15.10;99.90
44886;DHT22;36669;51.428;21.162;2022-09-09T07:03:54;15.00;99.90
44886;DHT22;36669;51.428;21.162;2022-09-09T07:06:26;15.10;99.90
44886;DHT22;36669;51.428;21.162;2022-09-09T07:08:56;15.20;99.90
44886;DHT22;36669;51.428;21.162;2022-09-09T07:11:27;15.20;99.90
44886;DHT22;36669;51.428;21.162;2022-09-09T07:13:54;15.20;99.90
44886;DHT22;36669;51.428;21.162;2022-09-09T07:16:20;15.30;99.90
44886;DHT22;36669;51.428;21.162;2022-09-09T07:18:46;15.30;99.90
44886;DHT22;36669;51.428;21.162;2022-09-09T07:21:13;15.30;99.90
44886;DHT22;36669;51.428;21.162;2022-09-09T07:23:40;15.30;99.90
44886;DHT22;36669;51.428;21.162;2022-09-09T07:26:14;15.30;99.90
44886;DHT22;36669;51.428;21.162;2022-09-09T07:28:40;15.40;99.90
44886;DHT22;36669;51.428;21.162;2022-09-09T07:31:07;15.50;99.90
44886;DHT22;36669;51.428;21.162;2022-09-09T07:33:34;15.50;99.90
44886;DHT22;36669;51.428;21.162;2022-09-09T07:36:08;15.50;99.90
44886;DHT22;36669;51.428;21.162;2022-09-09T07:38:39;15.50;99.90
44886;DHT22;36669;51.428;21.162;2022-09-09T07:41:10;15.50;99.90
44886;DHT22;36669;51.428;21.162;2022-09-09T07:43:35;15.40;99.90
44886;DHT22;36669;51.428;21.162;2022-09-09T07:46:01;15.50;99.90
44886;DHT22;36669;51.428;21.162;2022-09-09T07:48:27;15.50;99.90
44886;DHT22;36669;51.428;21.162;2022-09-09T07:51:02;15.50;99.90
44886;DHT22;36669;51.428;21.162;2022-09-09T07:53:27;15.40;99.90
44886;DHT22;36669;51.428;21.162;2022-09-09T07:55:53;15.50;99.90
44886;DHT22;36669;51.428;21.162;2022-09-09T07:58:18;15.40;99.90
44886;DHT22;36669;51.428;21.162;2022-09-09T08:00:44;15.40;99.90
44886;DHT22;36669;51.428;21.162;2022-09-09T08:03:09;15.20;99.90
44886;DHT22;36669;51.428;21.162;2022-09-09T08:05:35;15.20;99.90
44886;DHT22;36669;51.428;21.162;2022-09-09T08:08:00;15.30;99.90
44886;DHT22;36669;51.428;21.162;2022-09-09T08:10:26;15.40;99.90
44886;DHT22;36669;51.428;21.162;2022-09-09T08:12:52;15.40;99.90
44886;DHT22;36669;51.428;21.162;2022-09-09T08:15:17;15.50;99.90
44886;DHT22;36669;51.428;21.162;2022-09-09T08:17:43;15.50;99.90
44886;DHT22;36669;51.428;21.162;2022-09-09T08:20:08;15.60;99.90
44886;DHT22;36669;51.428;21.162;2022-09-09T08:22:34;15.60;99.90
44886;DHT22;36669;51.428;21.162;2022-09-09T08:24:59;15.60;99.90
44886;DHT22;36669;51.428;21.162;2022-09-09T08:27:25;15.70;99.90
44886;DHT22;36669;51.428;21.162;2022-09-09T08:29:50;15.80;99.90
44886;DHT22;36669;51.428;21.162;2022-09-09T08:32:16;15.90;99.90
44886;DHT22;36669;51.428;21.162;2022-09-09T08:34:42;15.90;99.90
44886;DHT22;36669;51.428;21.162;2022-09-09T08:37:07;15.90;99.90
44886;DHT22;36669;51.428;21.162;2022-09-09T08:39:33;15.90;99.90
44886;DHT22;36669;51.428;21.162;2022-09-09T08:42:32;15.90;99.90
44886;DHT22;36669;51.428;21.162;2022-09-09T08:45:24;15.90;99.90
44886;DHT22;36669;51.428;21.162;2022-09-09T08:50:39;15.90;99.90
44886;DHT22;36669;51.428;21.162;2022-09-09T08:55:56;15.90;99.90
44886;DHT22;36669;51.428;21.162;2022-09-09T08:58:31;16.00;99.90
44886;DHT22;36669;51.428;21.162;2022-09-09T09:11:38;16.20;99.90
44886;DHT22;36669;51.428;21.162;2022-09-09T09:14:11;16.20;99.90
44886;DHT22;36669;51.428;21.162;2022-09-09T09:16:59;16.20;99.90
44886;DHT22;36669;51.428;21.162;2022-09-09T09:19:26;16.10;99.90
44886;DHT22;36669;51.428;21.162;2022-09-09T09:22:14;16.20;99.90
44886;DHT22;36669;51.428;21.162;2022-09-09T09:25:05;16.20;99.90
44886;DHT22;36669;51.428;21.162;2022-09-09T09:27:59;16.30;99.90
44886;DHT22;36669;51.428;21.162;2022-09-09T09:30:29;16.20;99.90
44886;DHT22;36669;51.428;21.162;2022-09-09T09:35:51;16.40;99.90
44886;DHT22;36669;51.428;21.162;2022-09-09T09:38:26;16.40;99.90
44886;DHT22;36669;51.428;21.162;2022-09-09T09:40:57;16.50;99.90
44886;DHT22;36669;51.428;21.162;2022-09-09T09:43:33;16.50;99.90
44886;DHT22;36669;51.428;21.162;2022-09-09T09:45:59;16.50;99.90
44886;DHT22;36669;51.428;21.162;2022-09-09T09:48:26;16.60;99.90
44886;DHT22;36669;51.428;21.162;2022-09-09T09:50:55;16.50;99.90
44886;DHT22;36669;51.428;21.162;2022-09-09T09:53:31;16.60;99.90
44886;DHT22;36669;51.428;21.162;2022-09-09T09:56:05;16.70;99.90
44886;DHT22;36669;51.428;21.162;2022-09-09T09:58:37;16.90;99.90
44886;DHT22;36669;51.428;21.162;2022-09-09T10:01:26;17.00;99.90
44886;DHT22;36669;51.428;21.162;2022-09-09T10:03:55;17.00;99.90
44886;DHT22;36669;51.428;21.162;2022-09-09T10:08:56;17.20;99.90
44886;DHT22;36669;51.428;21.162;2022-09-09T10:11:47;17.20;99.90
44886;DHT22;36669;51.428;21.162;2022-09-09T10:14:20;17.20;99.90
44886;DHT22;36669;51.428;21.162;2022-09-09T10:19:33;17.20;99.90
44886;DHT22;36669;51.428;21.162;2022-09-09T10:22:04;17.10;99.90
44886;DHT22;36669;51.428;21.162;2022-09-09T10:32:47;17.30;99.90
44886;DHT22;36669;51.428;21.162;2022-09-09T10:51:10;17.10;99.90
44886;DHT22;36669;51.428;21.162;2022-09-09T10:56:17;17.10;99.90
44886;DHT22;36669;51.428;21.162;2022-09-09T11:01:32;16.90;99.90
44886;DHT22;36669;51.428;21.162;2022-09-09T11:04:25;16.80;99.90
44886;DHT22;36669;51.428;21.162;2022-09-09T11:06:56;16.70;99.90
44886;DHT22;36669;51.428;21.162;2022-09-09T11:09:26;16.70;99.90
44886;DHT22;36669;51.428;21.162;2022-09-09T11:11:57;16.70;99.90
44886;DHT22;36669;51.428;21.162;2022-09-09T11:14:49;16.70;99.90
44886;DHT22;36669;51.428;21.162;2022-09-09T11:17:19;16.60;99.90
44886;DHT22;36669;51.428;21.162;2022-09-09T11:19:46;16.60;99.90
44886;DHT22;36669;51.428;21.162;2022-09-09T11:22:33;16.70;99.90
44886;DHT22;36669;51.428;21.162;2022-09-09T11:25:08;16.70;99.90
44886;DHT22;36669;51.428;21.162;2022-09-09T11:30:31;16.70;99.90
44886;DHT22;36669;51.428;21.162;2022-09-09T11:33:48;16.60;99.90
44886;DHT22;36669;51.428;21.162;2022-09-09T11:41:51;16.60;99.90
44886;DHT22;36669;51.428;21.162;2022-09-09T11:44:27;16.60;99.90
44886;DHT22;36669;51.428;21.162;2022-09-09T11:46:54;16.60;99.90
44886;DHT22;36669;51.428;21.162;2022-09-09T11:49:27;16.70;99.90
44886;DHT22;36669;51.428;21.162;2022-09-09T11:51:53;16.80;99.90
44886;DHT22;36669;51.428;21.162;2022-09-09T11:54:33;16.90;99.90
44886;DHT22;36669;51.428;21.162;2022-09-09T11:57:35;17.00;99.90
44886;DHT22;36669;51.428;21.162;2022-09-09T12:00:02;17.50;99.90
44886;DHT22;36669;51.428;21.162;2022-09-09T12:02:29;18.10;99.90
44886;DHT22;36669;51.428;21.162;2022-09-09T12:05:12;18.60;99.90
44886;DHT22;36669;51.428;21.162;2022-09-09T12:07:39;19.10;99.90
44886;DHT22;36669;51.428;21.162;2022-09-09T12:10:26;19.40;99.90
44886;DHT22;36669;51.428;21.162;2022-09-09T12:12:52;19.30;99.90
44886;DHT22;36669;51.428;21.162;2022-09-09T12:15:29;19.40;99.90
44886;DHT22;36669;51.428;21.162;2022-09-09T12:17:57;19.30;99.90
44886;DHT22;36669;51.428;21.162;2022-09-09T12:20:26;19.20;99.90
44886;DHT22;36669;51.428;21.162;2022-09-09T12:23:22;19.20;99.90
44886;DHT22;36669;51.428;21.162;2022-09-09T12:26:16;19.20;99.90
44886;DHT22;36669;51.428;21.162;2022-09-09T12:31:35;19.10;99.90
44886;DHT22;36669;51.428;21.162;2022-09-09T12:34:11;19.10;99.90
44886;DHT22;36669;51.428;21.162;2022-09-09T12:36:40;19.20;99.90
44886;DHT22;36669;51.428;21.162;2022-09-09T12:39:32;19.30;99.90
44886;DHT22;36669;51.428;21.162;2022-09-09T12:41:58;19.20;99.90
44886;DHT22;36669;51.428;21.162;2022-09-09T12:44:25;19.30;99.90
44886;DHT22;36669;51.428;21.162;2022-09-09T12:46:51;19.60;99.90
44886;DHT22;36669;51.428;21.162;2022-09-09T12:49:38;19.50;99.90
44886;DHT22;36669;51.428;21.162;2022-09-09T12:52:28;19.80;99.90
44886;DHT22;36669;51.428;21.162;2022-09-09T12:54:54;19.90;99.90
44886;DHT22;36669;51.428;21.162;2022-09-09T12:57:22;19.70;99.90
44886;DHT22;36669;51.428;21.162;2022-09-09T12:59:48;20.10;99.90
44886;DHT22;36669;51.428;21.162;2022-09-09T13:02:22;20.60;99.90
44886;DHT22;36669;51.428;21.162;2022-09-09T13:04:48;21.30;99.90
44886;DHT22;36669;51.428;21.162;2022-09-09T13:07:14;22.00;99.90
44886;DHT22;36669;51.428;21.162;2022-09-09T13:09:40;22.60;99.90
44886;DHT22;36669;51.428;21.162;2022-09-09T13:12:18;23.20;99.90
44886;DHT22;36669;51.428;21.162;2022-09-09T13:14:47;23.60;99.90
44886;DHT22;36669;51.428;21.162;2022-09-09T13:17:24;23.50;99.90
44886;DHT22;36669;51.428;21.162;2022-09-09T13:19:51;23.60;99.90
44886;DHT22;36669;51.428;21.162;2022-09-09T13:22:29;24.30;99.90
44886;DHT22;36669;51.428;21.162;2022-09-09T13:25:28;24.90;99.90
44886;DHT22;36669;51.428;21.162;2022-09-09T13:28:03;25.00;99.90
44886;DHT22;36669;51.428;21.162;2022-09-09T13:30:34;24.50;99.90
44886;DHT22;36669;51.428;21.162;2022-09-09T13:33:38;24.30;99.90
44886;DHT22;36669;51.428;21.162;2022-09-09T13:36:05;24.20;99.90
44886;DHT22;36669;51.428;21.162;2022-09-09T13:38:35;23.80;99.90
44886;DHT22;36669;51.428;21.162;2022-09-09T13:41:02;23.70;99.90
44886;DHT22;36669;51.428;21.162;2022-09-09T13:43:30;23.40;99.90
44886;DHT22;36669;51.428;21.162;2022-09-09T13:46:22;23.50;99.90
44886;DHT22;36669;51.428;21.162;2022-09-09T13:48:58;23.60;99.90
44886;DHT22;36669;51.428;21.162;2022-09-09T13:51:36;24.00;99.90
44886;DHT22;36669;51.428;21.162;2022-09-09T13:54:01;23.80;99.90
44886;DHT22;36669;51.428;21.162;2022-09-09T13:56:27;24.00;99.90
44886;DHT22;36669;51.428;21.162;2022-09-09T13:58:52;23.80;99.90
44886;DHT22;36669;51.428;21.162;2022-09-09T14:01:18;23.40;99.90
44886;DHT22;36669;51.428;21.162;2022-09-09T14:03:43;23.00;99.90
44886;DHT22;36669;51.428;21.162;2022-09-09T14:06:10;22.70;99.90
44886;DHT22;36669;51.428;21.162;2022-09-09T14:08:36;22.80;99.90
44886;DHT22;36669;51.428;21.162;2022-09-09T14:11:02;23.10;99.90
44886;DHT22;36669;51.428;21.162;2022-09-09T14:13:27;23.40;99.90
44886;DHT22;36669;51.428;21.162;2022-09-09T14:15:53;23.60;99.90
44886;DHT22;36669;51.428;21.162;2022-09-09T14:18:18;23.90;99.90
44886;DHT22;36669;51.428;21.162;2022-09-09T14:20:44;23.80;99.90
44886;DHT22;36669;51.428;21.162;2022-09-09T14:23:11;23.60;99.90
44886;DHT22;36669;51.428;21.162;2022-09-09T14:25:42;23.30;99.90
44886;DHT22;36669;51.428;21.162;2022-09-09T14:28:12;23.20;99.90
44886;DHT22;36669;51.428;21.162;2022-09-09T14:30:40;23.10;99.90
44886;DHT22;36669;51.428;21.162;2022-09-09T14:33:07;22.50;99.90
44886;DHT22;36669;51.428;21.162;2022-09-09T14:35:32;21.90;99.90
44886;DHT22;36669;51.428;21.162;2022-09-09T14:37:58;21.50;99.90
44886;DHT22;36669;51.428;21.162;2022-09-09T14:40:24;21.30;99.90
44886;DHT22;36669;51.428;21.162;2022-09-09T14:42:49;21.20;99.90
44886;DHT22;36669;51.428;21.162;2022-09-09T14:45:15;21.00;99.90
44886;DHT22;36669;51.428;21.162;2022-09-09T14:47:40;20.80;99.90
44886;DHT22;36669;51.428;21.162;2022-09-09T14:50:06;20.60;99.90
44886;DHT22;36669;51.428;21.162;2022-09-09T14:52:32;20.60;99.90
44886;DHT22;36669;51.428;21.162;2022-09-09T14:54:57;20.60;99.90
44886;DHT22;36669;51.428;21.162;2022-09-09T14:57:23;20.50;99.90
44886;DHT22;36669;51.428;21.162;2022-09-09T14:59:48;20.60;99.90
44886;DHT22;36669;51.428;21.162;2022-09-09T15:02:14;20.60;99.90
44886;DHT22;36669;51.428;21.162;2022-09-09T15:04:39;20.80;99.90
44886;DHT22;36669;51.428;21.162;2022-09-09T15:07:05;20.90;99.90
44886;DHT22;36669;51.428;21.162;2022-09-09T15:09:30;21.00;99.90
44886;DHT22;36669;51.428;21.162;2022-09-09T15:11:56;21.00;99.90
44886;DHT22;36669;51.428;21.162;2022-09-09T15:14:21;20.90;99.90
44886;DHT22;36669;51.428;21.162;2022-09-09T15:16:47;20.90;99.90
44886;DHT22;36669;51.428;21.162;2022-09-09T15:19:12;20.90;99.90
44886;DHT22;36669;51.428;21.162;2022-09-09T15:21:38;21.50;99.90
44886;DHT22;36669;51.428;21.162;2022-09-09T15:24:04;22.20;99.90
44886;DHT22;36669;51.428;21.162;2022-09-09T15:26:30;22.80;99.90
44886;DHT22;36669;51.428;21.162;2022-09-09T15:28:56;22.70;99.90
44886;DHT22;36669;51.428;21.162;2022-09-09T15:31:23;22.90;99.90
44886;DHT22;36669;51.428;21.162;2022-09-09T15:34:01;22.60;99.90
44886;DHT22;36669;51.428;21.162;2022-09-09T15:36:47;22.90;99.90
44886;DHT22;36669;51.428;21.162;2022-09-09T15:39:15;23.00;99.90
44886;DHT22;36669;51.428;21.162;2022-09-09T15:41:41;22.90;99.90
44886;DHT22;36669;51.428;21.162;2022-09-09T15:44:07;23.20;99.90
44886;DHT22;36669;51.428;21.162;2022-09-09T15:46:38;23.10;99.90
44886;DHT22;36669;51.428;21.162;2022-09-09T15:49:07;22.80;99.90
44886;DHT22;36669;51.428;21.162;2022-09-09T15:51:33;22.80;99.90
44886;DHT22;36669;51.428;21.162;2022-09-09T15:53:59;22.50;99.90
44886;DHT22;36669;51.428;21.162;2022-09-09T15:56:26;22.30;99.90
44886;DHT22;36669;51.428;21.162;2022-09-09T15:58:52;21.90;99.90
44886;DHT22;36669;51.428;21.162;2022-09-09T16:01:18;21.50;99.90
44886;DHT22;36669;51.428;21.162;2022-09-09T16:03:44;21.10;99.90
44886;DHT22;36669;51.428;21.162;2022-09-09T16:06:09;20.50;99.90
44886;DHT22;36669;51.428;21.162;2022-09-09T16:08:37;20.10;99.90
44886;DHT22;36669;51.428;21.162;2022-09-09T16:11:17;19.60;99.90
44886;DHT22;36669;51.428;21.162;2022-09-09T16:13:44;19.30;99.90
44886;DHT22;36669;51.428;21.162;2022-09-09T16:16:11;19.00;99.90
44886;DHT22;36669;51.428;21.162;2022-09-09T16:18:43;18.80;99.90
44886;DHT22;36669;51.428;21.162;2022-09-09T16:21:14;18.60;99.90
44886;DHT22;36669;51.428;21.162;2022-09-09T16:23:40;18.40;99.90
44886;DHT22;36669;51.428;21.162;2022-09-09T16:26:06;18.20;99.90
44886;DHT22;36669;51.428;21.162;2022-09-09T16:28:31;18.00;99.90
44886;DHT22;36669;51.428;21.162;2022-09-09T16:30:57;17.70;99.90
44886;DHT22;36669;51.428;21.162;2022-09-09T16:33:22;17.40;99.90
44886;DHT22;36669;51.428;21.162;2022-09-09T16:35:48;17.20;99.90
44886;DHT22;36669;51.428;21.162;2022-09-09T16:38:14;17.10;99.90
44886;DHT22;36669;51.428;21.162;2022-09-09T16:40:40;17.00;99.90
44886;DHT22;36669;51.428;21.162;2022-09-09T16:43:05;16.80;99.90
44886;DHT22;36669;51.428;21.162;2022-09-09T16:45:31;16.70;99.90
44886;DHT22;36669;51.428;21.162;2022-09-09T16:47:57;16.50;99.90
44886;DHT22;36669;51.428;21.162;2022-09-09T16:50:22;16.40;99.90
44886;DHT22;36669;51.428;21.162;2022-09-09T16:52:48;16.40;99.90
44886;DHT22;36669;51.428;21.162;2022-09-09T16:55:14;16.30;99.90
44886;DHT22;36669;51.428;21.162;2022-09-09T16:57:39;16.20;99.90
44886;DHT22;36669;51.428;21.162;2022-09-09T17:00:05;16.10;99.90
44886;DHT22;36669;51.428;21.162;2022-09-09T17:02:31;16.00;99.90
44886;DHT22;36669;51.428;21.162;2022-09-09T17:04:56;16.00;99.90